Time;durP1;ratioP1;P1;durP2;ratioP2;P2;SDS_P1;SDS_P2;PMS_P1;PMS_P2;Temp;Humidity;BMP_temperature;BMP_pressure;BME280_temperature;BME280_humidity;BME280_pressure;Samples;Min_cycle;Max_cycle;Signal;HPM_P1;HPM_P2
2022/04/10 00:01:33;;;;;;;9.10;5.20;;;;;;;4.87;71.21;99115.34;5092964;28;20016;-49
2022/04/10 00:03:59;;;;;;;6.85;4.90;;;;;;;4.98;70.73;99112.47;5094311;28;20027;-50
2022/04/10 00:06:25;;;;;;;11.57;6.60;;;;;;;5.06;70.44;99109.09;5092919;28;20020;-51
2022/04/10 00:08:51;;;;;;;10.23;5.78;;;;;;;5.12;69.63;99112.88;5094178;28;20048;-51
2022/04/10 00:11:17;;;;;;;8.23;4.53;;;;;;;5.26;69.90;99112.28;5092817;28;20051;-51
2022/04/10 00:13:43;;;;;;;10.27;5.57;;;;;;;5.32;68.96;99098.66;5092778;28;20501;-48
2022/04/10 00:16:09;;;;;;;7.65;4.90;;;;;;;5.28;68.10;99099.94;5092778;28;20581;-49
2022/04/10 00:18:36;;;;;;;7.82;4.30;;;;;;;5.21;68.64;99106.72;5094020;28;20028;-51
2022/04/10 00:21:04;;;;;;;7.80;5.70;;;;;;;5.22;68.86;99102.34;5093977;28;20048;-50
2022/04/10 00:23:30;;;;;;;11.77;10.43;;;;;;;5.14;68.21;99108.31;5092545;28;20093;-49
2022/04/10 00:25:56;;;;;;;11.20;5.65;;;;;;;4.94;68.68;99110.31;5092516;28;20055;-50
2022/04/10 00:28:22;;;;;;;7.55;5.18;;;;;;;4.74;69.13;99112.31;5093843;28;20028;-50
2022/04/10 00:30:47;;;;;;;7.60;5.75;;;;;;;4.66;70.07;99109.66;5093671;28;20458;-50
2022/04/10 00:33:13;;;;;;;7.28;5.78;;;;;;;4.60;70.10;99105.88;5093534;28;20047;-51
2022/04/10 00:35:39;;;;;;;16.17;12.43;;;;;;;4.58;70.21;99105.22;5093626;28;20034;-51
2022/04/10 00:38:06;;;;;;;16.00;9.02;;;;;;;4.53;70.67;99123.06;5093505;28;20028;-49
2022/04/10 00:40:32;;;;;;;14.43;6.88;;;;;;;4.56;70.81;99117.53;5093546;28;20020;-51
2022/04/10 00:42:58;;;;;;;8.90;6.63;;;;;;;4.67;70.54;99124.28;5092217;28;20032;-51
2022/04/10 00:45:24;;;;;;;9.35;5.55;;;;;;;4.73;70.17;99121.91;5092147;28;20394;-49
2022/04/10 00:47:50;;;;;;;12.60;5.72;;;;;;;4.76;70.16;99118.19;5093397;28;20130;-50
2022/04/10 00:50:18;;;;;;;7.30;4.82;;;;;;;4.68;69.68;99121.53;5093342;28;20020;-50
2022/04/10 00:52:47;;;;;;;9.63;5.03;;;;;;;4.64;70.09;99132.38;5093307;28;20508;-49
2022/04/10 00:55:14;;;;;;;9.02;5.07;;;;;;;4.65;69.85;99118.41;5091974;28;20020;-51
2022/04/10 00:57:40;;;;;;;10.50;6.38;;;;;;;4.74;69.71;99122.72;5090991;28;20020;-50
2022/04/10 01:00:12;;;;;;;11.55;4.57;;;;;;;4.67;68.82;99121.66;5093127;28;20023;-50
2022/04/10 01:02:38;;;;;;;6.25;4.50;;;;;;;4.49;68.76;99127.72;5091805;28;20032;-51
2022/04/10 01:05:05;;;;;;;6.40;4.45;;;;;;;4.35;69.46;99121.28;5093042;28;20520;-50
2022/04/10 01:07:31;;;;;;;5.03;4.47;;;;;;;4.21;69.67;99124.41;5093022;28;20065;-51
2022/04/10 01:09:57;;;;;;;6.25;4.60;;;;;;;4.06;69.50;99126.69;5091662;28;20028;-50
2022/04/10 01:12:23;;;;;;;8.98;6.38;;;;;;;3.90;70.04;99123.94;5092892;28;20081;-50
2022/04/10 01:14:50;;;;;;;8.60;4.40;;;;;;;3.75;70.76;99119.22;5092870;28;20056;-51
2022/04/10 01:17:16;;;;;;;6.25;4.32;;;;;;;3.71;70.66;99119.69;5091428;28;20028;-49
2022/04/10 01:19:42;;;;;;;7.22;4.50;;;;;;;3.60;71.08;99112.88;5091446;28;20017;-50
2022/04/10 01:22:09;;;;;;;9.30;4.75;;;;;;;3.50;71.22;99117.31;5091377;28;20077;-49
2022/04/10 01:24:40;;;;;;;5.38;4.45;;;;;;;3.37;71.43;99115.06;5092707;28;20035;-48
2022/04/10 01:27:06;;;;;;;8.00;5.32;;;;;;;3.33;72.08;99119.72;5092675;28;20493;-48
2022/04/10 01:29:33;;;;;;;8.48;3.90;;;;;;;3.39;71.87;99115.75;5092605;28;20031;-50
2022/04/10 01:31:59;;;;;;;6.68;4.03;;;;;;;3.44;71.99;99115.31;5092237;28;20048;-49
2022/04/10 01:34:25;;;;;;;8.23;4.43;;;;;;;3.38;71.72;99117.53;5092507;28;20390;-49
2022/04/10 01:36:51;;;;;;;9.45;4.57;;;;;;;3.32;72.02;99114.66;5092426;28;20028;-48
2022/04/10 01:39:17;;;;;;;7.35;4.38;;;;;;;3.35;72.08;99112.59;5092459;28;20165;-48
2022/04/10 01:41:46;;;;;;;5.72;3.40;;;;;;;3.51;72.14;99111.19;5092367;28;20024;-49
2022/04/10 01:44:12;;;;;;;8.85;3.60;;;;;;;3.61;71.49;99117.13;5091046;28;20016;-48
2022/04/10 01:46:38;;;;;;;7.90;4.28;;;;;;;3.66;70.80;99111.50;5091005;28;20032;-50
2022/04/10 01:49:06;;;;;;;6.32;3.38;;;;;;;3.57;70.49;99113.19;5090998;28;20051;-49
2022/04/10 01:51:32;;;;;;;7.18;4.00;;;;;;;3.40;70.61;99113.00;5092244;28;20017;-48
2022/04/10 01:53:58;;;;;;;7.15;3.60;;;;;;;3.27;71.06;99106.50;5092267;28;20393;-48
2022/04/10 01:56:24;;;;;;;8.13;3.50;;;;;;;3.17;71.35;99102.16;5092170;28;20562;-48
2022/04/10 01:58:53;;;;;;;8.65;4.32;;;;;;;3.11;71.54;99100.16;5092097;28;20045;-50
2022/04/10 02:01:20;;;;;;;9.13;4.22;;;;;;;3.18;71.68;99101.22;5092110;28;20031;-48
2022/04/10 02:03:46;;;;;;;7.80;4.95;;;;;;;3.24;71.94;99104.19;5090749;28;20054;-50
2022/04/10 02:06:13;;;;;;;11.23;9.50;;;;;;;3.34;71.94;99092.00;5092094;28;20032;-50
2022/04/10 02:08:41;;;;;;;9.05;5.63;;;;;;;3.60;71.71;99099.91;5091906;28;20031;-48
2022/04/10 02:11:16;;;;;;;6.50;5.10;;;;;;;3.72;71.21;99093.59;5092003;28;20024;-48
2022/04/10 02:13:43;;;;;;;7.50;5.03;;;;;;;3.83;70.56;99095.16;5090727;28;20562;-48
2022/04/10 02:16:16;;;;;;;10.45;5.43;;;;;;;3.78;70.30;99082.63;5091953;28;20024;-50
2022/04/10 02:18:42;;;;;;;11.27;5.47;;;;;;;3.75;70.45;99077.69;5091815;28;20489;-48
2022/04/10 02:21:08;;;;;;;11.05;6.30;;;;;;;3.79;70.35;99088.63;5091858;28;20055;-49
2022/04/10 02:23:34;;;;;;;12.57;6.03;;;;;;;3.73;70.42;99084.00;5091848;28;20558;-49
2022/04/10 02:26:00;;;;;;;7.38;4.38;;;;;;;3.76;70.50;99087.13;5091800;28;20024;-48
2022/04/10 02:28:26;;;;;;;8.98;5.80;;;;;;;3.76;70.16;99081.94;5090500;28;20405;-48
2022/04/10 02:30:52;;;;;;;8.00;4.90;;;;;;;3.73;70.12;99082.22;5091772;28;20388;-48
2022/04/10 02:33:17;;;;;;;8.85;6.28;;;;;;;3.74;70.43;99080.44;5091569;28;20039;-48
2022/04/10 02:35:43;;;;;;;54.08;44.92;;;;;;;3.92;70.94;99078.66;5091732;28;20031;-48
2022/04/10 02:38:10;;;;;;;41.85;35.10;;;;;;;4.10;70.77;99076.06;5091613;28;20555;-48
2022/04/10 02:40:35;;;;;;;49.67;38.78;;;;;;;4.31;69.64;99072.38;5091666;28;20039;-48
2022/04/10 02:43:01;;;;;;;12.90;9.43;;;;;;;4.39;68.14;99070.63;5091710;28;20020;-50
2022/04/10 02:45:27;;;;;;;15.70;10.88;;;;;;;4.27;68.34;99076.25;5090271;28;20405;-49
2022/04/10 02:47:53;;;;;;;10.70;6.07;;;;;;;4.19;68.65;99064.81;5091591;28;20107;-49
2022/04/10 02:50:19;;;;;;;10.60;5.82;;;;;;;4.16;68.37;99070.28;5091579;28;20074;-49
2022/04/10 02:52:44;;;;;;;8.75;5.68;;;;;;;4.04;68.12;99060.28;5091575;28;20056;-49
2022/04/10 02:55:10;;;;;;;10.57;7.07;;;;;;;3.86;68.72;99065.47;5091581;28;20024;-48
2022/04/10 02:57:37;;;;;;;10.65;6.47;;;;;;;3.70;69.67;99055.75;5090150;28;20073;-48
2022/04/10 03:00:05;;;;;;;14.35;11.48;;;;;;;3.71;69.46;99060.78;5091502;28;20111;-50
2022/04/10 03:02:30;;;;;;;8.57;6.90;;;;;;;3.93;70.11;99049.16;5091389;28;20512;-49
2022/04/10 03:04:56;;;;;;;10.65;6.60;;;;;;;4.14;69.75;99053.22;5091777;28;20036;-48
2022/04/10 03:07:22;;;;;;;8.10;4.70;;;;;;;4.27;67.79;99053.66;5091425;28;20028;-48
2022/04/10 03:09:47;;;;;;;13.82;6.55;;;;;;;4.19;68.21;99048.41;5091450;28;20016;-48
2022/04/10 03:12:13;;;;;;;9.07;5.78;;;;;;;4.09;67.83;99047.69;5091396;28;20047;-48
2022/04/10 03:14:39;;;;;;;7.80;3.83;;;;;;;4.09;67.96;99045.88;5091448;28;20064;-48
2022/04/10 03:17:05;;;;;;;29.60;22.55;;;;;;;4.11;68.33;99045.75;5089939;28;20023;-50
2022/04/10 03:19:30;;;;;;;12.70;6.93;;;;;;;4.35;68.55;99043.34;5089998;28;20024;-50
2022/04/10 03:21:56;;;;;;;8.90;7.95;;;;;;;4.46;67.35;99041.44;5094065;28;20024;-47
2022/04/10 03:24:22;;;;;;;7.93;5.03;;;;;;;4.37;67.13;99033.59;5095061;28;20074;-48
2022/04/10 03:26:48;;;;;;;10.25;5.45;;;;;;;4.31;67.30;99033.41;5094997;28;20023;-50
2022/04/10 03:29:13;;;;;;;10.50;5.45;;;;;;;4.17;67.20;99040.75;5094887;28;20066;-49
2022/04/10 03:31:39;;;;;;;9.43;7.07;;;;;;;4.00;67.69;99032.03;5094662;28;20526;-50
2022/04/10 03:34:05;;;;;;;15.05;9.63;;;;;;;3.81;67.39;99037.38;5094918;28;20030;-49
2022/04/10 03:36:32;;;;;;;9.10;5.57;;;;;;;3.79;68.87;99040.09;5094763;28;20103;-48
2022/04/10 03:38:57;;;;;;;18.20;9.52;;;;;;;3.93;68.22;99037.97;5094713;28;20019;-48
2022/04/10 03:41:23;;;;;;;11.05;5.00;;;;;;;3.90;68.32;99033.84;5093411;28;20028;-49
2022/04/10 03:43:49;;;;;;;8.45;5.00;;;;;;;3.83;68.22;99042.41;5094696;28;20486;-48
2022/04/10 03:46:15;;;;;;;5.28;4.25;;;;;;;3.78;68.58;99040.25;5094606;28;20194;-49
2022/04/10 03:48:40;;;;;;;10.77;6.90;;;;;;;3.81;68.41;99047.75;5093275;28;20531;-49
2022/04/10 03:51:06;;;;;;;11.77;5.65;;;;;;;3.86;68.04;99042.09;5094547;28;20027;-49
2022/04/10 03:53:34;;;;;;;10.10;5.88;;;;;;;3.90;68.56;99046.84;5094507;28;20020;-49
2022/04/10 03:56:00;;;;;;;12.00;7.53;;;;;;;3.91;68.42;99043.28;5094504;28;20082;-49
2022/04/10 03:58:26;;;;;;;29.42;16.98;;;;;;;3.92;67.84;99044.09;5092937;28;20024;-48
2022/04/10 04:00:52;;;;;;;11.68;8.52;;;;;;;3.78;68.45;99041.09;5093086;28;20051;-49
2022/04/10 04:03:17;;;;;;;7.45;5.60;;;;;;;3.67;68.07;99037.88;5094289;28;20149;-48
2022/04/10 04:05:43;;;;;;;10.00;8.43;;;;;;;3.47;68.52;99052.75;5092930;28;20028;-48
2022/04/10 04:08:09;;;;;;;15.85;10.18;;;;;;;3.36;69.61;99061.53;5094175;28;20032;-50
2022/04/10 04:10:34;;;;;;;21.98;10.57;;;;;;;3.51;69.47;99067.06;5094167;28;20099;-48
2022/04/10 04:13:01;;;;;;;7.75;5.22;;;;;;;3.60;69.01;99066.19;5094096;28;20485;-48
2022/04/10 04:15:27;;;;;;;6.72;5.05;;;;;;;3.37;68.69;99068.38;5092691;28;20025;-50
2022/04/10 04:17:53;;;;;;;11.57;5.32;;;;;;;3.07;68.93;99069.47;5093979;28;20024;-48
2022/04/10 04:20:19;;;;;;;47.45;41.15;;;;;;;2.89;69.63;99072.78;5093922;28;20031;-47
2022/04/10 04:22:45;;;;;;;10.18;9.07;;;;;;;2.76;70.40;99073.09;5093967;28;20028;-47
2022/04/10 04:25:10;;;;;;;11.88;6.28;;;;;;;2.73;70.35;99078.56;5093887;28;20024;-48
2022/04/10 04:27:36;;;;;;;6.63;5.00;;;;;;;2.66;70.88;99082.69;5092505;28;20520;-48
2022/04/10 04:30:02;;;;;;;17.40;12.18;;;;;;;2.55;71.10;99081.06;5093792;28;20024;-48
2022/04/10 04:32:28;;;;;;;32.05;26.05;;;;;;;2.50;71.18;99091.03;5090971;28;20120;-49
2022/04/10 04:34:54;;;;;;;6.97;5.88;;;;;;;2.56;71.24;99092.25;5092349;28;20076;-49
2022/04/10 04:37:20;;;;;;;6.55;4.82;;;;;;;2.55;71.35;99104.38;5092174;28;20032;-48
2022/04/10 04:39:45;;;;;;;7.93;5.10;;;;;;;2.70;71.83;99101.38;5092291;28;20028;-49
2022/04/10 04:42:11;;;;;;;10.57;5.70;;;;;;;2.79;70.68;99096.13;5093533;28;20081;-48
2022/04/10 04:44:37;;;;;;;10.93;5.70;;;;;;;2.89;71.05;99103.91;5093514;28;20023;-48
2022/04/10 04:47:03;;;;;;;15.68;5.45;;;;;;;2.87;70.61;99108.41;5093429;28;20034;-48
2022/04/10 04:49:28;;;;;;;10.13;4.72;;;;;;;2.91;70.57;99111.53;5093392;28;20428;-48
2022/04/10 04:51:54;;;;;;;9.40;5.13;;;;;;;2.92;70.28;99119.19;5093373;28;20490;-49
2022/04/10 04:54:20;;;;;;;16.48;5.85;;;;;;;2.91;70.24;99119.31;5091951;28;20394;-49
2022/04/10 04:56:46;;;;;;;13.48;5.07;;;;;;;3.06;70.79;99120.50;5093441;28;20057;-48
2022/04/10 04:59:14;;;;;;;7.90;5.10;;;;;;;3.40;70.76;99125.97;5093246;28;20032;-47
2022/04/10 05:01:41;;;;;;;7.93;4.93;;;;;;;3.65;69.85;99128.03;5093234;28;20397;-50
2022/04/10 05:04:08;;;;;;;27.90;15.32;;;;;;;3.74;69.30;99129.75;5091824;28;20058;-50
2022/04/10 05:06:33;;;;;;;11.82;7.03;;;;;;;3.98;68.81;99131.78;5091816;28;20032;-48
2022/04/10 05:08:59;;;;;;;6.13;4.60;;;;;;;4.24;68.78;99131.06;5093133;28;20103;-48
2022/04/10 05:11:25;;;;;;;10.10;5.57;;;;;;;4.30;67.56;99133.06;5092981;28;20542;-49
2022/04/10 05:13:51;;;;;;;7.22;5.13;;;;;;;4.35;67.86;99138.66;5091619;28;20473;-49
2022/04/10 05:16:18;;;;;;;12.77;8.68;;;;;;;4.37;66.93;99136.72;5092899;28;20104;-49
2022/04/10 05:18:43;;;;;;;5.00;4.10;;;;;;;4.39;66.02;99140.00;5092813;28;20027;-49
2022/04/10 05:21:09;;;;;;;10.05;4.45;;;;;;;4.31;65.66;99140.72;5091402;28;20028;-48
2022/04/10 05:23:35;;;;;;;6.68;4.13;;;;;;;4.25;65.72;99137.91;5092797;28;20016;-49
2022/04/10 05:26:01;;;;;;;8.07;4.68;;;;;;;4.20;66.02;99138.34;5092756;28;20020;-48
2022/04/10 05:28:26;;;;;;;7.80;4.15;;;;;;;4.18;66.13;99148.06;5091333;28;20490;-48
2022/04/10 05:30:52;;;;;;;8.55;4.75;;;;;;;4.21;66.01;99150.38;5092658;28;20064;-50
2022/04/10 05:33:18;;;;;;;42.83;8.10;;;;;;;4.29;66.33;99160.03;5092215;28;20044;-49
2022/04/10 05:35:44;;;;;;;7.80;5.80;;;;;;;4.39;66.36;99156.41;5092578;28;20455;-49
2022/04/10 05:38:10;;;;;;;9.25;3.80;;;;;;;4.50;65.76;99152.75;5091107;28;20034;-51
2022/04/10 05:40:36;;;;;;;8.07;5.20;;;;;;;4.56;65.84;99161.72;5092701;28;20110;-51
2022/04/10 05:43:02;;;;;;;10.52;6.00;;;;;;;4.67;66.01;99160.66;5092177;28;20104;-50
2022/04/10 05:45:27;;;;;;;12.73;8.02;;;;;;;4.73;66.17;99162.69;5090962;28;20562;-51
2022/04/10 05:47:53;;;;;;;10.13;7.53;;;;;;;4.71;65.67;99168.03;5092348;28;20028;-50
2022/04/10 05:50:19;;;;;;;16.60;11.88;;;;;;;4.62;66.18;99166.31;5092273;28;20052;-49
2022/04/10 05:52:50;;;;;;;21.10;12.23;;;;;;;4.73;66.43;99166.09;5090973;28;20421;-48
2022/04/10 05:55:18;;;;;;;14.38;6.78;;;;;;;4.92;66.18;99162.50;5092249;28;20032;-49
2022/04/10 05:57:44;;;;;;;32.67;21.00;;;;;;;5.06;65.85;99163.72;5092122;28;20051;-48
2022/04/10 06:00:15;;;;;;;33.67;14.82;;;;;;;4.90;65.78;99171.41;5092104;28;20024;-48
2022/04/10 06:02:42;;;;;;;21.40;9.40;;;;;;;4.88;66.36;99174.16;5090799;28;20028;-49
2022/04/10 06:05:08;;;;;;;17.77;8.23;;;;;;;4.98;66.14;99174.88;5092084;28;20527;-48
2022/04/10 06:07:34;;;;;;;28.13;12.18;;;;;;;5.09;66.23;99168.63;5092127;28;20030;-49
2022/04/10 06:10:00;;;;;;;22.85;14.38;;;;;;;5.15;66.42;99173.22;5092022;28;20069;-48
2022/04/10 06:12:27;;;;;;;26.35;15.23;;;;;;;5.35;66.46;99175.59;5092003;28;20024;-49
2022/04/10 06:14:54;;;;;;;33.97;10.38;;;;;;;5.65;66.61;99187.28;5092019;28;20016;-49
2022/04/10 06:17:20;;;;;;;19.70;9.85;;;;;;;5.82;65.05;99192.59;5091853;28;20111;-48
2022/04/10 06:19:46;;;;;;;18.23;12.68;;;;;;;5.97;65.18;99194.44;5091923;28;20110;-50
2022/04/10 06:22:11;;;;;;;23.83;9.73;;;;;;;6.17;64.54;99197.59;5091870;28;20055;-50
2022/04/10 06:24:37;;;;;;;19.85;9.32;;;;;;;6.29;63.82;99200.72;5092160;28;20035;-48
2022/04/10 06:27:03;;;;;;;23.23;9.43;;;;;;;6.40;63.43;99202.22;5091809;28;20027;-49
2022/04/10 06:29:29;;;;;;;615.85;48.03;;;;;;;6.39;64.01;99200.59;5090528;28;20434;-49
2022/04/10 06:31:55;;;;;;;27.15;16.70;;;;;;;6.23;63.43;99206.56;5090206;28;20059;-49
2022/04/10 06:34:21;;;;;;;60.50;13.85;;;;;;;6.14;64.06;99207.53;5091829;28;20027;-50
2022/04/10 06:36:47;;;;;;;25.40;10.70;;;;;;;6.22;63.42;99207.56;5090359;28;20119;-49
2022/04/10 06:39:14;;;;;;;22.58;13.77;;;;;;;6.40;64.40;99202.22;5090397;28;20019;-48
2022/04/10 06:41:39;;;;;;;39.17;20.52;;;;;;;6.54;63.90;99203.38;5091709;28;20039;-47
2022/04/10 06:44:05;;;;;;;30.48;18.10;;;;;;;6.76;63.84;99200.13;5091646;28;20486;-49
2022/04/10 06:46:31;;;;;;;33.58;11.85;;;;;;;7.02;62.70;99195.72;5091637;28;20073;-49
2022/04/10 06:48:57;;;;;;;27.58;11.50;;;;;;;7.20;62.64;99198.94;5091603;28;20028;-49
2022/04/10 06:51:22;;;;;;;27.58;14.07;;;;;;;7.14;61.59;99195.22;5091613;28;20073;-49
2022/04/10 06:53:48;;;;;;;52.58;16.15;;;;;;;6.96;60.96;99198.00;5090235;28;20146;-48
2022/04/10 06:56:15;;;;;;;35.67;19.83;;;;;;;6.73;62.41;99203.06;5093398;28;20298;-49
2022/04/10 06:58:41;;;;;;;67.07;19.60;;;;;;;6.67;62.23;99192.47;5095477;28;20052;-48
2022/04/10 07:01:07;;;;;;;39.78;20.85;;;;;;;6.53;62.39;99192.13;5095450;28;20028;-48
2022/04/10 07:03:33;;;;;;;55.63;37.88;;;;;;;6.69;63.04;99187.91;5095410;28;20026;-48
2022/04/10 07:05:59;;;;;;;86.45;35.72;;;;;;;6.84;61.97;99193.28;5095393;28;20056;-49
2022/04/10 07:08:26;;;;;;;39.17;20.75;;;;;;;6.93;61.69;99192.31;5095393;28;20055;-48
2022/04/10 07:10:53;;;;;;;55.13;37.40;;;;;;;6.90;60.90;99203.06;5095290;28;20023;-50
2022/04/10 07:13:20;;;;;;;41.53;16.60;;;;;;;6.71;60.94;99206.81;5093931;28;20024;-49
2022/04/10 07:15:47;;;;;;;25.75;13.63;;;;;;;6.60;62.21;99208.78;5095237;28;20028;-48
2022/04/10 07:18:14;;;;;;;24.05;14.38;;;;;;;6.84;62.41;99198.50;5093795;28;20070;-49
2022/04/10 07:20:40;;;;;;;26.98;12.57;;;;;;;7.15;61.75;99199.44;5095140;28;20099;-48
2022/04/10 07:25:50;;;;;;;21.23;14.77;;;;;;;8.65;59.67;99199.47;5095085;28;20085;-51
2022/04/10 07:28:16;;;;;;;28.85;15.95;;;;;;;9.55;58.43;99188.16;5093654;28;20028;-51
2022/04/10 07:30:43;;;;;;;28.42;14.82;;;;;;;10.46;55.97;99181.78;5094974;28;20024;-51
2022/04/10 07:33:08;;;;;;;21.38;14.50;;;;;;;11.51;54.54;99177.50;5094720;28;20044;-48
2022/04/10 07:35:35;;;;;;;24.60;14.65;;;;;;;11.82;52.06;99182.31;5094861;28;20366;-50
2022/04/10 07:38:01;;;;;;;23.80;14.15;;;;;;;11.70;52.48;99187.31;5094707;28;20059;-49
2022/04/10 07:40:27;;;;;;;21.25;14.45;;;;;;;12.04;52.01;99182.25;5094814;28;20047;-49
2022/04/10 07:42:53;;;;;;;29.00;15.90;;;;;;;12.35;50.32;99192.22;5094759;28;20460;-50
2022/04/10 07:48:03;;;;;;;32.20;19.40;;;;;;;12.06;50.63;99199.44;5094682;28;20085;-50
2022/04/10 07:50:29;;;;;;;22.88;15.48;;;;;;;12.18;50.31;99191.78;5094598;28;20070;-49
2022/04/10 07:52:55;;;;;;;23.45;15.15;;;;;;;12.22;50.38;99187.75;5094522;28;20031;-50
2022/04/10 07:55:22;;;;;;;22.88;16.08;;;;;;;12.33;50.17;99194.25;5094532;28;20424;-49
2022/04/10 07:57:50;;;;;;;19.00;14.10;;;;;;;12.43;49.57;99192.03;5093029;28;20024;-49
2022/04/10 08:00:19;;;;;;;20.08;14.93;;;;;;;12.30;48.89;99192.84;5094403;28;20103;-50
2022/04/10 08:02:48;;;;;;;20.23;13.50;;;;;;;11.97;49.51;99188.28;5094323;28;20521;-49
2022/04/10 08:05:18;;;;;;;16.60;12.27;;;;;;;12.13;49.53;99186.28;5094233;28;20375;-50
2022/04/10 08:07:44;;;;;;;15.95;11.15;;;;;;;12.52;48.64;99190.84;5093958;28;20106;-49
2022/04/10 08:10:12;;;;;;;18.00;11.13;;;;;;;13.49;47.38;99185.16;5092815;28;20528;-50
2022/04/10 08:12:41;;;;;;;18.15;10.30;;;;;;;14.10;46.03;99183.91;5094236;28;20032;-49
2022/04/10 08:15:08;;;;;;;9.73;7.80;;;;;;;14.00;45.19;99184.38;5092767;28;20030;-49
2022/04/10 08:17:34;;;;;;;43.83;33.17;;;;;;;13.73;45.67;99194.22;5092708;28;20115;-50
2022/04/10 08:20:03;;;;;;;11.40;8.13;;;;;;;13.66;46.02;99196.06;5093990;28;20456;-49
2022/04/10 08:22:32;;;;;;;11.27;7.75;;;;;;;13.59;46.33;99196.91;5093939;28;20031;-50
2022/04/10 08:25:02;;;;;;;9.25;7.00;;;;;;;13.58;46.36;99197.94;5093921;28;20038;-50
2022/04/10 08:27:29;;;;;;;10.88;7.97;;;;;;;13.43;46.79;99204.44;5094247;28;20046;-49
2022/04/10 08:29:55;;;;;;;10.00;6.68;;;;;;;13.51;46.74;99204.22;5093837;28;20063;-49
2022/04/10 08:32:21;;;;;;;8.50;6.60;;;;;;;13.86;46.18;99199.44;5093572;28;20413;-50
2022/04/10 08:34:47;;;;;;;9.40;6.07;;;;;;;14.37;44.77;99195.16;5093649;28;20104;-49
2022/04/10 08:37:12;;;;;;;8.20;6.05;;;;;;;14.48;44.67;99196.31;5093596;28;20390;-49
2022/04/10 08:39:38;;;;;;;7.60;5.30;;;;;;;14.52;44.56;99192.22;5093663;28;20023;-49
2022/04/10 08:42:06;;;;;;;7.00;6.22;;;;;;;14.49;44.54;99198.75;5093529;28;20032;-50
2022/04/10 08:44:32;;;;;;;6.03;5.32;;;;;;;14.70;44.09;99194.16;5093543;28;20073;-50
2022/04/10 08:47:00;;;;;;;6.72;4.72;;;;;;;14.61;43.70;99195.44;5092109;28;20107;-50
2022/04/10 08:49:29;;;;;;;4.75;4.30;;;;;;;14.27;44.10;99200.91;5093466;28;20533;-50
2022/04/10 08:51:55;;;;;;;6.93;4.57;;;;;;;13.77;45.11;99201.50;5093389;28;20031;-49
2022/04/10 08:54:22;;;;;;;5.60;4.80;;;;;;;13.11;45.97;99204.25;5093664;28;20017;-50
2022/04/10 08:56:50;;;;;;;7.60;4.88;;;;;;;12.50;47.33;99200.78;5091862;28;20475;-49
2022/04/10 08:59:17;;;;;;;5.63;4.00;;;;;;;11.86;48.42;99203.78;5091924;28;20493;-49
2022/04/10 09:01:43;;;;;;;4.60;4.03;;;;;;;11.49;49.70;99204.00;5091878;28;20031;-49
2022/04/10 09:04:09;;;;;;;7.40;4.70;;;;;;;11.41;50.22;99209.41;5093180;28;20103;-49
2022/04/10 09:06:58;;;;;;;5.72;3.53;;;;;;;11.46;50.45;99208.81;5093106;28;20103;-50
2022/04/10 09:09:24;;;;;;;4.93;4.38;;;;;;;11.79;50.32;99199.31;5093150;28;20076;-49
2022/04/10 09:11:54;;;;;;;3.80;3.40;;;;;;;12.19;49.57;99191.59;5093009;28;20029;-50
2022/04/10 09:14:27;;;;;;;3.50;2.80;;;;;;;13.79;47.89;99188.91;5091668;28;20024;-50
2022/04/10 09:17:19;;;;;;;3.25;2.95;;;;;;;15.31;45.11;99182.03;5091481;28;20062;-49
2022/04/10 09:19:50;;;;;;;4.15;2.58;;;;;;;15.59;43.30;99181.53;5092291;28;20032;-51
2022/04/10 09:22:22;;;;;;;4.00;2.13;;;;;;;17.67;40.74;99180.88;5092846;28;20066;-50
2022/04/10 09:25:07;;;;;;;4.97;2.53;;;;;;;20.56;36.93;99171.56;5092796;28;20035;-50
2022/04/10 09:27:35;;;;;;;;;;;;;;;23.11;35.63;99168.22;5093289;28;20447;-49
2022/04/10 09:30:02;;;;;;;4.18;2.95;;;;;;;23.80;30.38;99165.09;5092938;28;19908;-50
2022/04/10 09:32:37;;;;;;;3.85;2.83;;;;;;;24.22;30.34;99161.09;5091101;28;20071;-50
2022/04/10 09:35:04;;;;;;;5.00;3.22;;;;;;;24.74;28.50;99151.59;5092580;28;20035;-50
2022/04/10 09:37:40;;;;;;;4.53;3.00;;;;;;;25.59;27.37;99155.53;5092539;28;20027;-51
2022/04/10 09:40:28;;;;;;;4.05;3.05;;;;;;;26.17;26.00;99145.66;5092545;28;20035;-51
2022/04/10 09:42:58;;;;;;;4.15;3.10;;;;;;;26.12;24.77;99149.25;5092462;28;20565;-51
2022/04/10 09:45:30;;;;;;;6.65;3.65;;;;;;;26.24;24.28;99143.38;5092422;28;20103;-51
2022/04/10 09:47:56;;;;;;;8.25;3.95;;;;;;;27.08;22.41;99146.06;5092381;28;20086;-49
2022/04/10 09:50:32;;;;;;;5.78;4.00;;;;;;;27.93;22.23;99142.22;5092355;28;20031;-50
2022/04/10 09:53:05;;;;;;;4.88;3.00;;;;;;;28.58;20.76;99138.28;5092318;28;20030;-51
2022/04/10 09:55:39;;;;;;;4.82;3.53;;;;;;;28.41;20.68;99136.22;5091028;28;20039;-51
2022/04/10 09:58:08;;;;;;;3.38;2.20;;;;;;;28.63;20.30;99127.34;5090981;28;20531;-51
2022/04/10 10:00:38;;;;;;;4.13;2.20;;;;;;;29.06;19.62;99115.94;5090959;28;20024;-51
2022/04/10 10:03:05;;;;;;;3.30;2.00;;;;;;;29.46;19.32;99118.66;5092297;28;20028;-50
2022/04/10 10:05:31;;;;;;;4.30;2.60;;;;;;;29.86;19.06;99119.34;5090821;28;20016;-52
2022/04/10 10:07:59;;;;;;;4.18;2.17;;;;;;;29.55;19.21;99111.31;5092113;28;20103;-52
2022/04/10 10:10:28;;;;;;;2.80;2.30;;;;;;;29.06;19.83;99108.63;5092048;28;20528;-51
2022/04/10 10:12:56;;;;;;;3.50;2.25;;;;;;;28.75;20.06;99105.16;5092056;28;20401;-51
2022/04/10 10:15:22;;;;;;;4.68;2.22;;;;;;;28.72;19.70;99103.88;5092000;28;20449;-51
2022/04/10 10:17:48;;;;;;;3.42;2.30;;;;;;;28.59;20.00;99104.75;5091910;28;20077;-51
2022/04/10 10:20:14;;;;;;;3.22;1.92;;;;;;;28.33;20.03;99099.19;5091948;28;20039;-51
2022/04/10 10:22:40;;;;;;;3.80;2.05;;;;;;;28.43;19.26;99093.53;5091930;28;20028;-51
2022/04/10 10:25:07;;;;;;;3.63;1.75;;;;;;;28.85;19.40;99088.69;5090518;28;20047;-50
2022/04/10 10:27:48;;;;;;;2.92;1.52;;;;;;;29.24;18.72;99076.28;5091760;28;20036;-50
2022/04/10 10:30:22;;;;;;;2.00;1.38;;;;;;;29.09;17.95;99072.06;5093895;28;20395;-50
2022/04/10 10:32:55;;;;;;;3.50;1.23;;;;;;;28.57;17.57;99074.56;5094462;28;20054;-51
2022/04/10 10:35:35;;;;;;;2.22;1.50;;;;;;;28.37;18.08;99070.47;5096087;28;20681;-50
2022/04/10 10:38:01;;;;;;;4.38;1.13;;;;;;;28.60;17.53;99076.66;5095959;28;20020;-51
2022/04/10 10:40:27;;;;;;;2.33;1.05;;;;;;;28.82;17.31;99071.19;5094586;28;20032;-51
2022/04/10 10:42:58;;;;;;;2.42;1.30;;;;;;;29.10;16.73;99065.56;5094546;28;20035;-49
2022/04/10 10:45:36;;;;;;;2.35;1.42;;;;;;;29.30;16.30;99066.91;5095901;28;20028;-50
2022/04/10 10:48:31;;;;;;;1.98;1.08;;;;;;;29.12;16.97;99057.16;5095866;28;20055;-51
2022/04/10 10:51:01;;;;;;;4.93;1.23;;;;;;;28.34;17.52;99055.69;5088803;28;20101;-51
2022/04/10 10:53:44;;;;;;;7.68;1.40;;;;;;;27.89;17.97;99055.72;5095794;28;20036;-51
2022/04/10 10:56:32;;;;;;;1.15;0.70;;;;;;;28.04;16.66;99046.44;5095601;28;20027;-50
2022/04/10 10:59:21;;;;;;;1.40;1.00;;;;;;;28.37;16.54;99035.38;5095565;28;20447;-51
2022/04/10 11:01:59;;;;;;;3.15;1.05;;;;;;;27.96;16.27;99034.47;5095474;28;20397;-50
2022/04/10 11:04:28;;;;;;;3.05;0.93;;;;;;;28.25;16.67;99036.75;5095537;28;20021;-51
2022/04/10 11:06:54;;;;;;;2.95;0.90;;;;;;;28.49;16.57;99031.00;5095469;28;20028;-51
2022/04/10 11:09:28;;;;;;;2.70;0.80;;;;;;;28.20;16.37;99033.38;5094388;28;20031;-51
2022/04/10 11:11:57;;;;;;;1.00;0.77;;;;;;;27.96;16.21;99039.88;5095442;28;20056;-51
2022/04/10 11:14:34;;;;;;;3.63;1.30;;;;;;;27.73;16.59;99043.63;5095374;28;20055;-50
2022/04/10 11:17:09;;;;;;;2.25;0.95;;;;;;;27.70;16.77;99050.44;5095220;28;20103;-51
2022/04/10 11:19:36;;;;;;;1.65;0.80;;;;;;;27.86;16.31;99042.78;5095223;28;20020;-52
2022/04/10 11:22:04;;;;;;;5.22;0.70;;;;;;;28.18;16.32;99039.06;5095127;28;20020;-52
2022/04/10 11:24:31;;;;;;;1.65;0.90;;;;;;;28.41;16.44;99039.84;5095275;28;20043;-51
2022/04/10 11:26:56;;;;;;;1.67;0.90;;;;;;;28.38;16.85;99034.28;5095124;28;20024;-50
2022/04/10 11:29:25;;;;;;;0.73;0.73;;;;;;;27.97;16.28;99036.09;5093799;28;20031;-51
2022/04/10 11:31:54;;;;;;;1.95;1.00;;;;;;;27.26;17.24;99041.94;5094739;28;20471;-51
2022/04/10 11:34:22;;;;;;;3.33;1.15;;;;;;;27.21;17.52;99035.88;5093692;28;20028;-51
2022/04/10 11:36:49;;;;;;;2.20;1.17;;;;;;;26.99;17.72;99036.59;5094841;28;20104;-51
2022/04/10 11:39:16;;;;;;;2.97;1.30;;;;;;;26.77;18.06;99027.31;5094783;28;20114;-51
2022/04/10 11:41:42;;;;;;;4.07;2.40;;;;;;;26.53;18.41;99021.28;5093051;28;20118;-51